sensor_id;sensor_type;location;lat;lon;timestamp;temperature;humidity
23629;DHT22;11991;57.150;-2.134;2023-08-30T00:01:27;11.50;99.90
23629;DHT22;11991;57.150;-2.134;2023-08-30T00:03:54;11.50;99.90
23629;DHT22;11991;57.150;-2.134;2023-08-30T00:06:22;11.50;99.90
23629;DHT22;11991;57.150;-2.134;2023-08-30T00:08:49;11.40;99.90
23629;DHT22;11991;57.150;-2.134;2023-08-30T00:11:16;11.40;99.90
23629;DHT22;11991;57.150;-2.134;2023-08-30T00:13:43;11.30;99.90
23629;DHT22;11991;57.150;-2.134;2023-08-30T00:16:10;11.20;99.90
23629;DHT22;11991;57.150;-2.134;2023-08-30T00:18:41;11.20;99.90
23629;DHT22;11991;57.150;-2.134;2023-08-30T00:21:08;11.20;99.90
23629;DHT22;11991;57.150;-2.134;2023-08-30T00:23:35;11.20;99.90
23629;DHT22;11991;57.150;-2.134;2023-08-30T00:26:02;11.10;99.90
23629;DHT22;11991;57.150;-2.134;2023-08-30T00:28:29;11.00;99.90
23629;DHT22;11991;57.150;-2.134;2023-08-30T00:30:56;10.90;99.90
23629;DHT22;11991;57.150;-2.134;2023-08-30T00:33:23;10.80;99.90
23629;DHT22;11991;57.150;-2.134;2023-08-30T00:35:58;10.70;99.90
23629;DHT22;11991;57.150;-2.134;2023-08-30T00:38:27;10.60;99.90
23629;DHT22;11991;57.150;-2.134;2023-08-30T00:40:54;10.60;99.90
23629;DHT22;11991;57.150;-2.134;2023-08-30T00:43:22;10.50;99.90
23629;DHT22;11991;57.150;-2.134;2023-08-30T00:45:49;10.50;99.90
23629;DHT22;11991;57.150;-2.134;2023-08-30T00:48:20;10.50;99.90
23629;DHT22;11991;57.150;-2.134;2023-08-30T00:50:48;10.50;99.90
23629;DHT22;11991;57.150;-2.134;2023-08-30T00:53:15;10.40;99.90
23629;DHT22;11991;57.150;-2.134;2023-08-30T00:55:44;10.40;99.90
23629;DHT22;11991;57.150;-2.134;2023-08-30T00:58:12;10.40;99.90
23629;DHT22;11991;57.150;-2.134;2023-08-30T01:00:40;10.50;99.90
23629;DHT22;11991;57.150;-2.134;2023-08-30T01:03:09;10.40;99.90
23629;DHT22;11991;57.150;-2.134;2023-08-30T01:05:37;10.40;99.90
23629;DHT22;11991;57.150;-2.134;2023-08-30T01:08:04;10.40;99.90
23629;DHT22;11991;57.150;-2.134;2023-08-30T01:10:52;10.40;99.90
23629;DHT22;11991;57.150;-2.134;2023-08-30T01:13:21;10.50;99.90
23629;DHT22;11991;57.150;-2.134;2023-08-30T01:15:48;10.50;99.90
23629;DHT22;11991;57.150;-2.134;2023-08-30T01:18:18;10.50;99.90
23629;DHT22;11991;57.150;-2.134;2023-08-30T01:20:47;10.40;99.90
23629;DHT22;11991;57.150;-2.134;2023-08-30T01:23:29;10.50;99.90
23629;DHT22;11991;57.150;-2.134;2023-08-30T01:28:31;10.50;99.90
23629;DHT22;11991;57.150;-2.134;2023-08-30T01:31:00;10.50;99.90
23629;DHT22;11991;57.150;-2.134;2023-08-30T01:33:27;10.50;99.90
23629;DHT22;11991;57.150;-2.134;2023-08-30T01:35:57;10.50;99.90
23629;DHT22;11991;57.150;-2.134;2023-08-30T01:38:27;10.50;99.90
23629;DHT22;11991;57.150;-2.134;2023-08-30T01:40:56;10.60;99.90
23629;DHT22;11991;57.150;-2.134;2023-08-30T01:43:26;10.50;99.90
23629;DHT22;11991;57.150;-2.134;2023-08-30T01:45:54;10.50;99.90
23629;DHT22;11991;57.150;-2.134;2023-08-30T01:48:24;10.50;99.90
23629;DHT22;11991;57.150;-2.134;2023-08-30T01:50:51;10.50;99.90
23629;DHT22;11991;57.150;-2.134;2023-08-30T01:53:19;10.50;99.90
23629;DHT22;11991;57.150;-2.134;2023-08-30T01:55:47;10.50;99.90
23629;DHT22;11991;57.150;-2.134;2023-08-30T01:58:15;10.50;99.90
23629;DHT22;11991;57.150;-2.134;2023-08-30T02:00:42;10.50;99.90
23629;DHT22;11991;57.150;-2.134;2023-08-30T02:03:13;10.50;99.90
23629;DHT22;11991;57.150;-2.134;2023-08-30T02:06:06;10.50;99.90
23629;DHT22;11991;57.150;-2.134;2023-08-30T02:08:40;10.50;99.90
23629;DHT22;11991;57.150;-2.134;2023-08-30T02:11:14;10.50;99.90
23629;DHT22;11991;57.150;-2.134;2023-08-30T02:13:44;10.50;99.90
23629;DHT22;11991;57.150;-2.134;2023-08-30T02:16:13;10.50;99.90
23629;DHT22;11991;57.150;-2.134;2023-08-30T02:18:42;10.50;99.90
23629;DHT22;11991;57.150;-2.134;2023-08-30T02:21:09;10.50;99.90
23629;DHT22;11991;57.150;-2.134;2023-08-30T02:23:36;10.50;99.90
23629;DHT22;11991;57.150;-2.134;2023-08-30T02:26:03;10.50;99.90
23629;DHT22;11991;57.150;-2.134;2023-08-30T02:28:31;10.50;99.90
23629;DHT22;11991;57.150;-2.134;2023-08-30T02:30:58;10.50;99.90
23629;DHT22;11991;57.150;-2.134;2023-08-30T02:33:25;10.50;99.90
23629;DHT22;11991;57.150;-2.134;2023-08-30T02:35:52;10.50;99.90
23629;DHT22;11991;57.150;-2.134;2023-08-30T02:38:20;10.50;99.90
23629;DHT22;11991;57.150;-2.134;2023-08-30T02:40:48;10.60;99.90
23629;DHT22;11991;57.150;-2.134;2023-08-30T02:43:16;10.60;99.90
23629;DHT22;11991;57.150;-2.134;2023-08-30T02:45:43;10.60;99.90
23629;DHT22;11991;57.150;-2.134;2023-08-30T02:48:11;10.60;99.90
23629;DHT22;11991;57.150;-2.134;2023-08-30T02:50:40;10.60;99.90
23629;DHT22;11991;57.150;-2.134;2023-08-30T02:53:07;10.60;99.90
23629;DHT22;11991;57.150;-2.134;2023-08-30T02:55:35;10.60;99.90
23629;DHT22;11991;57.150;-2.134;2023-08-30T02:58:02;10.60;99.90
23629;DHT22;11991;57.150;-2.134;2023-08-30T03:00:30;10.60;99.90
23629;DHT22;11991;57.150;-2.134;2023-08-30T03:02:58;10.60;99.90
23629;DHT22;11991;57.150;-2.134;2023-08-30T03:05:25;10.60;99.90
23629;DHT22;11991;57.150;-2.134;2023-08-30T03:07:53;10.60;99.90
23629;DHT22;11991;57.150;-2.134;2023-08-30T03:10:22;10.60;99.90
23629;DHT22;11991;57.150;-2.134;2023-08-30T03:12:50;10.60;99.90
23629;DHT22;11991;57.150;-2.134;2023-08-30T03:15:18;10.60;99.90
23629;DHT22;11991;57.150;-2.134;2023-08-30T03:17:45;10.60;99.90
23629;DHT22;11991;57.150;-2.134;2023-08-30T03:20:12;10.60;99.90
23629;DHT22;11991;57.150;-2.134;2023-08-30T03:22:39;10.60;99.90
23629;DHT22;11991;57.150;-2.134;2023-08-30T03:25:07;10.60;99.90
23629;DHT22;11991;57.150;-2.134;2023-08-30T03:27:38;10.60;99.90
23629;DHT22;11991;57.150;-2.134;2023-08-30T03:30:06;10.70;99.90
23629;DHT22;11991;57.150;-2.134;2023-08-30T03:32:34;10.70;99.90
23629;DHT22;11991;57.150;-2.134;2023-08-30T03:35:02;10.70;99.90
23629;DHT22;11991;57.150;-2.134;2023-08-30T03:37:32;10.70;99.90
23629;DHT22;11991;57.150;-2.134;2023-08-30T03:40:00;10.70;99.90
23629;DHT22;11991;57.150;-2.134;2023-08-30T03:42:27;10.70;99.90
23629;DHT22;11991;57.150;-2.134;2023-08-30T03:44:55;10.80;99.90
23629;DHT22;11991;57.150;-2.134;2023-08-30T03:47:22;10.70;99.90
23629;DHT22;11991;57.150;-2.134;2023-08-30T03:49:49;10.80;99.90
23629;DHT22;11991;57.150;-2.134;2023-08-30T03:52:16;10.70;99.90
23629;DHT22;11991;57.150;-2.134;2023-08-30T03:54:43;10.70;99.90
23629;DHT22;11991;57.150;-2.134;2023-08-30T03:57:10;10.70;99.90
23629;DHT22;11991;57.150;-2.134;2023-08-30T03:59:38;10.70;99.90
23629;DHT22;11991;57.150;-2.134;2023-08-30T04:02:05;10.70;99.90
23629;DHT22;11991;57.150;-2.134;2023-08-30T04:04:32;10.70;99.90
23629;DHT22;11991;57.150;-2.134;2023-08-30T04:06:59;10.70;99.90
23629;DHT22;11991;57.150;-2.134;2023-08-30T04:09:27;10.80;99.90
23629;DHT22;11991;57.150;-2.134;2023-08-30T04:11:54;10.80;99.90
23629;DHT22;11991;57.150;-2.134;2023-08-30T04:14:21;10.80;99.90
23629;DHT22;11991;57.150;-2.134;2023-08-30T04:16:50;10.80;99.90
23629;DHT22;11991;57.150;-2.134;2023-08-30T04:19:17;10.80;99.90
23629;DHT22;11991;57.150;-2.134;2023-08-30T04:21:45;10.80;99.90
23629;DHT22;11991;57.150;-2.134;2023-08-30T04:24:12;10.90;99.90
23629;DHT22;11991;57.150;-2.134;2023-08-30T04:26:39;10.90;99.90
23629;DHT22;11991;57.150;-2.134;2023-08-30T04:29:06;10.80;99.90
23629;DHT22;11991;57.150;-2.134;2023-08-30T04:31:33;10.90;99.90
23629;DHT22;11991;57.150;-2.134;2023-08-30T04:34:00;10.90;99.90
23629;DHT22;11991;57.150;-2.134;2023-08-30T04:36:28;10.90;99.90
23629;DHT22;11991;57.150;-2.134;2023-08-30T04:38:55;10.90;99.90
23629;DHT22;11991;57.150;-2.134;2023-08-30T04:41:31;10.90;99.90
23629;DHT22;11991;57.150;-2.134;2023-08-30T04:44:00;10.90;99.90
23629;DHT22;11991;57.150;-2.134;2023-08-30T04:46:28;10.90;99.90
23629;DHT22;11991;57.150;-2.134;2023-08-30T04:48:55;10.90;99.90
23629;DHT22;11991;57.150;-2.134;2023-08-30T04:51:23;10.90;99.90
23629;DHT22;11991;57.150;-2.134;2023-08-30T04:53:50;10.80;99.90
23629;DHT22;11991;57.150;-2.134;2023-08-30T04:56:17;10.80;99.90
23629;DHT22;11991;57.150;-2.134;2023-08-30T04:58:45;10.80;99.90
23629;DHT22;11991;57.150;-2.134;2023-08-30T05:01:13;10.80;99.90
23629;DHT22;11991;57.150;-2.134;2023-08-30T05:03:44;10.80;99.90
23629;DHT22;11991;57.150;-2.134;2023-08-30T05:06:13;10.80;99.90
23629;DHT22;11991;57.150;-2.134;2023-08-30T05:08:43;10.80;99.90
23629;DHT22;11991;57.150;-2.134;2023-08-30T05:11:11;10.80;99.90
23629;DHT22;11991;57.150;-2.134;2023-08-30T05:13:38;10.80;99.90
23629;DHT22;11991;57.150;-2.134;2023-08-30T05:16:05;10.80;99.90
23629;DHT22;11991;57.150;-2.134;2023-08-30T05:18:33;10.80;99.90
23629;DHT22;11991;57.150;-2.134;2023-08-30T05:21:01;10.80;99.90
23629;DHT22;11991;57.150;-2.134;2023-08-30T05:23:30;10.80;99.90
23629;DHT22;11991;57.150;-2.134;2023-08-30T05:25:58;10.80;99.90
23629;DHT22;11991;57.150;-2.134;2023-08-30T05:28:25;10.80;99.90
23629;DHT22;11991;57.150;-2.134;2023-08-30T05:30:53;10.80;99.90
23629;DHT22;11991;57.150;-2.134;2023-08-30T05:33:28;10.80;99.90
23629;DHT22;11991;57.150;-2.134;2023-08-30T05:36:18;10.80;99.90
23629;DHT22;11991;57.150;-2.134;2023-08-30T05:38:55;10.80;99.90
23629;DHT22;11991;57.150;-2.134;2023-08-30T05:41:33;10.80;99.90
23629;DHT22;11991;57.150;-2.134;2023-08-30T05:44:00;10.80;99.90
23629;DHT22;11991;57.150;-2.134;2023-08-30T05:46:28;10.80;99.90
23629;DHT22;11991;57.150;-2.134;2023-08-30T05:48:55;10.80;99.90
23629;DHT22;11991;57.150;-2.134;2023-08-30T05:51:23;10.80;99.90
23629;DHT22;11991;57.150;-2.134;2023-08-30T05:53:50;10.90;99.90
23629;DHT22;11991;57.150;-2.134;2023-08-30T05:56:17;10.90;99.90
23629;DHT22;11991;57.150;-2.134;2023-08-30T05:58:44;10.90;99.90
23629;DHT22;11991;57.150;-2.134;2023-08-30T06:01:11;10.90;99.90
23629;DHT22;11991;57.150;-2.134;2023-08-30T06:03:38;11.00;99.90
23629;DHT22;11991;57.150;-2.134;2023-08-30T06:06:06;10.90;99.90
23629;DHT22;11991;57.150;-2.134;2023-08-30T06:08:33;11.00;99.90
23629;DHT22;11991;57.150;-2.134;2023-08-30T06:11:00;11.00;99.90
23629;DHT22;11991;57.150;-2.134;2023-08-30T06:13:27;11.00;99.90
23629;DHT22;11991;57.150;-2.134;2023-08-30T06:15:54;11.10;99.90
23629;DHT22;11991;57.150;-2.134;2023-08-30T06:18:21;11.10;99.90
23629;DHT22;11991;57.150;-2.134;2023-08-30T06:20:49;11.10;99.90
23629;DHT22;11991;57.150;-2.134;2023-08-30T06:23:18;11.10;99.90
23629;DHT22;11991;57.150;-2.134;2023-08-30T06:25:56;11.20;99.90
23629;DHT22;11991;57.150;-2.134;2023-08-30T06:28:24;11.20;99.90
23629;DHT22;11991;57.150;-2.134;2023-08-30T06:30:51;11.10;99.90
23629;DHT22;11991;57.150;-2.134;2023-08-30T06:33:18;11.10;99.90
23629;DHT22;11991;57.150;-2.134;2023-08-30T06:35:48;11.10;99.90
23629;DHT22;11991;57.150;-2.134;2023-08-30T06:38:16;11.00;99.90
23629;DHT22;11991;57.150;-2.134;2023-08-30T06:40:44;11.00;99.90
23629;DHT22;11991;57.150;-2.134;2023-08-30T06:43:12;11.00;99.90
23629;DHT22;11991;57.150;-2.134;2023-08-30T06:45:40;11.00;99.90
23629;DHT22;11991;57.150;-2.134;2023-08-30T06:48:07;11.00;99.90
23629;DHT22;11991;57.150;-2.134;2023-08-30T06:50:35;11.00;99.90
23629;DHT22;11991;57.150;-2.134;2023-08-30T06:53:03;11.00;99.90
23629;DHT22;11991;57.150;-2.134;2023-08-30T06:55:30;11.10;99.90
23629;DHT22;11991;57.150;-2.134;2023-08-30T06:57:59;11.10;99.90
23629;DHT22;11991;57.150;-2.134;2023-08-30T07:00:26;11.10;99.90
23629;DHT22;11991;57.150;-2.134;2023-08-30T07:02:53;11.10;99.90
23629;DHT22;11991;57.150;-2.134;2023-08-30T07:05:22;11.10;99.90
23629;DHT22;11991;57.150;-2.134;2023-08-30T07:07:49;11.10;99.90
23629;DHT22;11991;57.150;-2.134;2023-08-30T07:10:17;11.00;99.90
23629;DHT22;11991;57.150;-2.134;2023-08-30T07:12:44;11.10;99.90
23629;DHT22;11991;57.150;-2.134;2023-08-30T07:15:15;11.10;99.90
23629;DHT22;11991;57.150;-2.134;2023-08-30T07:17:44;11.10;99.90
23629;DHT22;11991;57.150;-2.134;2023-08-30T07:20:14;11.20;99.90
23629;DHT22;11991;57.150;-2.134;2023-08-30T07:22:41;11.20;99.90
23629;DHT22;11991;57.150;-2.134;2023-08-30T07:25:08;11.20;99.90
23629;DHT22;11991;57.150;-2.134;2023-08-30T07:27:37;11.10;99.90
23629;DHT22;11991;57.150;-2.134;2023-08-30T07:30:05;11.20;99.90
23629;DHT22;11991;57.150;-2.134;2023-08-30T07:32:32;11.20;99.90
23629;DHT22;11991;57.150;-2.134;2023-08-30T07:34:59;11.20;99.90
23629;DHT22;11991;57.150;-2.134;2023-08-30T07:37:27;11.30;99.90
23629;DHT22;11991;57.150;-2.134;2023-08-30T07:39:54;11.30;99.90
23629;DHT22;11991;57.150;-2.134;2023-08-30T07:42:22;11.30;99.90
23629;DHT22;11991;57.150;-2.134;2023-08-30T07:44:49;11.30;99.90
23629;DHT22;11991;57.150;-2.134;2023-08-30T07:47:16;11.30;99.90
23629;DHT22;11991;57.150;-2.134;2023-08-30T07:49:43;11.40;99.90
23629;DHT22;11991;57.150;-2.134;2023-08-30T07:52:10;11.30;99.90
23629;DHT22;11991;57.150;-2.134;2023-08-30T07:54:39;11.30;99.90
23629;DHT22;11991;57.150;-2.134;2023-08-30T07:57:06;11.40;99.90
23629;DHT22;11991;57.150;-2.134;2023-08-30T07:59:35;11.40;99.90
23629;DHT22;11991;57.150;-2.134;2023-08-30T08:02:04;11.40;99.90
23629;DHT22;11991;57.150;-2.134;2023-08-30T08:04:37;11.40;99.90
23629;DHT22;11991;57.150;-2.134;2023-08-30T08:07:04;11.40;99.90
23629;DHT22;11991;57.150;-2.134;2023-08-30T08:09:32;11.40;99.90
23629;DHT22;11991;57.150;-2.134;2023-08-30T08:11:59;11.40;99.90
23629;DHT22;11991;57.150;-2.134;2023-08-30T08:14:26;11.40;99.90
23629;DHT22;11991;57.150;-2.134;2023-08-30T08:16:54;11.40;99.90
23629;DHT22;11991;57.150;-2.134;2023-08-30T08:19:21;11.50;99.90
23629;DHT22;11991;57.150;-2.134;2023-08-30T08:21:52;11.50;99.90
23629;DHT22;11991;57.150;-2.134;2023-08-30T08:24:22;11.60;99.90
23629;DHT22;11991;57.150;-2.134;2023-08-30T08:26:49;11.60;99.90
23629;DHT22;11991;57.150;-2.134;2023-08-30T08:29:16;11.70;99.90
23629;DHT22;11991;57.150;-2.134;2023-08-30T08:31:43;11.80;99.90
23629;DHT22;11991;57.150;-2.134;2023-08-30T08:34:12;11.90;99.90
23629;DHT22;11991;57.150;-2.134;2023-08-30T08:36:40;11.90;99.90
23629;DHT22;11991;57.150;-2.134;2023-08-30T08:39:34;11.90;99.90
23629;DHT22;11991;57.150;-2.134;2023-08-30T08:42:01;11.90;99.90
23629;DHT22;11991;57.150;-2.134;2023-08-30T08:44:32;11.90;99.90
23629;DHT22;11991;57.150;-2.134;2023-08-30T08:46:59;11.80;99.90
23629;DHT22;11991;57.150;-2.134;2023-08-30T08:49:27;11.80;99.90
23629;DHT22;11991;57.150;-2.134;2023-08-30T08:51:56;11.80;99.90
23629;DHT22;11991;57.150;-2.134;2023-08-30T08:54:24;11.80;99.90
23629;DHT22;11991;57.150;-2.134;2023-08-30T08:56:53;11.80;99.90
23629;DHT22;11991;57.150;-2.134;2023-08-30T08:59:21;11.80;99.90
23629;DHT22;11991;57.150;-2.134;2023-08-30T09:01:48;11.80;99.90
23629;DHT22;11991;57.150;-2.134;2023-08-30T09:04:16;11.80;99.90
23629;DHT22;11991;57.150;-2.134;2023-08-30T09:06:43;11.90;99.90
23629;DHT22;11991;57.150;-2.134;2023-08-30T09:09:11;11.90;99.90
23629;DHT22;11991;57.150;-2.134;2023-08-30T09:11:38;11.90;99.90
23629;DHT22;11991;57.150;-2.134;2023-08-30T09:14:09;12.00;99.90
23629;DHT22;11991;57.150;-2.134;2023-08-30T09:16:36;12.00;99.90
23629;DHT22;11991;57.150;-2.134;2023-08-30T09:19:04;12.10;99.90
23629;DHT22;11991;57.150;-2.134;2023-08-30T09:21:34;12.10;99.90
23629;DHT22;11991;57.150;-2.134;2023-08-30T09:26:32;12.20;99.90
23629;DHT22;11991;57.150;-2.134;2023-08-30T09:29:03;12.30;99.90
23629;DHT22;11991;57.150;-2.134;2023-08-30T09:31:38;12.40;99.90
23629;DHT22;11991;57.150;-2.134;2023-08-30T09:34:06;12.50;99.90
23629;DHT22;11991;57.150;-2.134;2023-08-30T09:36:38;12.70;99.90
23629;DHT22;11991;57.150;-2.134;2023-08-30T09:41:33;12.80;99.90
23629;DHT22;11991;57.150;-2.134;2023-08-30T09:44:06;12.90;99.90
23629;DHT22;11991;57.150;-2.134;2023-08-30T09:46:44;13.00;99.90
23629;DHT22;11991;57.150;-2.134;2023-08-30T09:49:26;13.00;99.90
23629;DHT22;11991;57.150;-2.134;2023-08-30T09:51:54;13.10;99.90
23629;DHT22;11991;57.150;-2.134;2023-08-30T09:54:42;13.10;99.90
23629;DHT22;11991;57.150;-2.134;2023-08-30T09:57:11;13.20;99.90
23629;DHT22;11991;57.150;-2.134;2023-08-30T09:59:39;13.20;99.90
23629;DHT22;11991;57.150;-2.134;2023-08-30T10:02:08;13.30;99.90
23629;DHT22;11991;57.150;-2.134;2023-08-30T10:04:38;13.40;99.90
23629;DHT22;11991;57.150;-2.134;2023-08-30T10:07:07;13.40;99.90
23629;DHT22;11991;57.150;-2.134;2023-08-30T10:09:38;13.40;99.90
23629;DHT22;11991;57.150;-2.134;2023-08-30T10:12:15;13.50;99.90
23629;DHT22;11991;57.150;-2.134;2023-08-30T10:14:43;13.50;99.90
23629;DHT22;11991;57.150;-2.134;2023-08-30T10:17:12;13.50;99.90
23629;DHT22;11991;57.150;-2.134;2023-08-30T10:19:41;13.50;99.90
23629;DHT22;11991;57.150;-2.134;2023-08-30T10:22:10;13.60;99.90
23629;DHT22;11991;57.150;-2.134;2023-08-30T10:24:45;13.60;99.90
23629;DHT22;11991;57.150;-2.134;2023-08-30T10:27:35;13.60;99.90
23629;DHT22;11991;57.150;-2.134;2023-08-30T10:30:05;13.60;99.90
23629;DHT22;11991;57.150;-2.134;2023-08-30T10:32:39;13.60;99.90
23629;DHT22;11991;57.150;-2.134;2023-08-30T10:35:06;13.60;99.90
23629;DHT22;11991;57.150;-2.134;2023-08-30T10:37:33;13.70;99.90
23629;DHT22;11991;57.150;-2.134;2023-08-30T10:40:03;13.70;99.90
23629;DHT22;11991;57.150;-2.134;2023-08-30T10:42:31;13.80;99.90
23629;DHT22;11991;57.150;-2.134;2023-08-30T10:45:00;13.90;99.90
23629;DHT22;11991;57.150;-2.134;2023-08-30T10:47:32;14.10;99.90
23629;DHT22;11991;57.150;-2.134;2023-08-30T10:50:10;14.10;99.90
23629;DHT22;11991;57.150;-2.134;2023-08-30T10:52:38;14.20;99.90
23629;DHT22;11991;57.150;-2.134;2023-08-30T10:55:13;14.20;99.90
23629;DHT22;11991;57.150;-2.134;2023-08-30T10:57:45;14.20;99.90
23629;DHT22;11991;57.150;-2.134;2023-08-30T11:00:22;14.20;99.90
23629;DHT22;11991;57.150;-2.134;2023-08-30T11:02:50;14.10;99.90
23629;DHT22;11991;57.150;-2.134;2023-08-30T11:05:22;14.20;99.90
23629;DHT22;11991;57.150;-2.134;2023-08-30T11:07:50;14.20;99.90
23629;DHT22;11991;57.150;-2.134;2023-08-30T11:10:19;14.30;99.90
23629;DHT22;11991;57.150;-2.134;2023-08-30T11:12:47;14.40;99.90
23629;DHT22;11991;57.150;-2.134;2023-08-30T11:15:17;14.50;99.90
23629;DHT22;11991;57.150;-2.134;2023-08-30T11:17:45;14.50;99.90
23629;DHT22;11991;57.150;-2.134;2023-08-30T11:20:14;14.60;99.90
23629;DHT22;11991;57.150;-2.134;2023-08-30T11:22:45;14.60;99.90
23629;DHT22;11991;57.150;-2.134;2023-08-30T11:25:14;14.60;99.90
23629;DHT22;11991;57.150;-2.134;2023-08-30T11:27:42;14.70;99.90
23629;DHT22;11991;57.150;-2.134;2023-08-30T11:30:11;14.80;99.90
23629;DHT22;11991;57.150;-2.134;2023-08-30T11:32:40;14.90;99.90
23629;DHT22;11991;57.150;-2.134;2023-08-30T11:35:07;15.00;99.90
23629;DHT22;11991;57.150;-2.134;2023-08-30T11:37:35;15.10;99.90
23629;DHT22;11991;57.150;-2.134;2023-08-30T11:40:03;15.10;99.90
23629;DHT22;11991;57.150;-2.134;2023-08-30T11:42:33;15.10;99.90
23629;DHT22;11991;57.150;-2.134;2023-08-30T11:45:01;15.20;99.90
23629;DHT22;11991;57.150;-2.134;2023-08-30T11:47:29;15.30;99.90
23629;DHT22;11991;57.150;-2.134;2023-08-30T11:49:57;15.30;99.90
23629;DHT22;11991;57.150;-2.134;2023-08-30T11:52:26;15.40;99.90
23629;DHT22;11991;57.150;-2.134;2023-08-30T11:54:54;15.50;99.90
23629;DHT22;11991;57.150;-2.134;2023-08-30T11:57:22;15.60;99.90
23629;DHT22;11991;57.150;-2.134;2023-08-30T11:59:49;15.50;99.90
23629;DHT22;11991;57.150;-2.134;2023-08-30T12:02:19;15.50;99.90
23629;DHT22;11991;57.150;-2.134;2023-08-30T12:04:46;15.50;99.90
23629;DHT22;11991;57.150;-2.134;2023-08-30T12:07:27;15.50;99.90
23629;DHT22;11991;57.150;-2.134;2023-08-30T12:10:07;15.50;99.90
23629;DHT22;11991;57.150;-2.134;2023-08-30T12:12:35;15.60;99.90
23629;DHT22;11991;57.150;-2.134;2023-08-30T12:15:13;15.60;99.90
23629;DHT22;11991;57.150;-2.134;2023-08-30T12:17:43;15.60;99.90
23629;DHT22;11991;57.150;-2.134;2023-08-30T12:20:17;15.80;99.90
23629;DHT22;11991;57.150;-2.134;2023-08-30T12:22:47;15.90;99.90
23629;DHT22;11991;57.150;-2.134;2023-08-30T12:25:20;16.00;99.90
23629;DHT22;11991;57.150;-2.134;2023-08-30T12:27:48;16.10;99.90
23629;DHT22;11991;57.150;-2.134;2023-08-30T12:30:16;16.00;99.90
23629;DHT22;11991;57.150;-2.134;2023-08-30T12:32:44;16.00;99.90
23629;DHT22;11991;57.150;-2.134;2023-08-30T12:35:12;16.00;99.90
23629;DHT22;11991;57.150;-2.134;2023-08-30T12:37:39;16.10;99.90
23629;DHT22;11991;57.150;-2.134;2023-08-30T12:40:07;16.20;99.90
23629;DHT22;11991;57.150;-2.134;2023-08-30T12:42:34;16.40;99.90
23629;DHT22;11991;57.150;-2.134;2023-08-30T12:45:01;16.50;99.90
23629;DHT22;11991;57.150;-2.134;2023-08-30T12:47:30;16.50;99.90
23629;DHT22;11991;57.150;-2.134;2023-08-30T12:49:57;16.40;99.90
23629;DHT22;11991;57.150;-2.134;2023-08-30T12:52:24;16.40;99.90
23629;DHT22;11991;57.150;-2.134;2023-08-30T12:54:51;16.30;99.90
23629;DHT22;11991;57.150;-2.134;2023-08-30T12:57:20;16.30;99.90
23629;DHT22;11991;57.150;-2.134;2023-08-30T12:59:47;16.40;99.90
23629;DHT22;11991;57.150;-2.134;2023-08-30T13:02:15;16.50;99.90
23629;DHT22;11991;57.150;-2.134;2023-08-30T13:04:42;16.50;99.90
23629;DHT22;11991;57.150;-2.134;2023-08-30T13:07:09;16.50;99.90
23629;DHT22;11991;57.150;-2.134;2023-08-30T13:09:36;16.50;99.90
23629;DHT22;11991;57.150;-2.134;2023-08-30T13:12:03;16.60;99.90
23629;DHT22;11991;57.150;-2.134;2023-08-30T13:14:30;16.60;99.90
23629;DHT22;11991;57.150;-2.134;2023-08-30T13:16:58;16.70;99.90
23629;DHT22;11991;57.150;-2.134;2023-08-30T13:19:25;16.80;99.90
23629;DHT22;11991;57.150;-2.134;2023-08-30T13:21:52;16.80;99.90
23629;DHT22;11991;57.150;-2.134;2023-08-30T13:24:19;16.90;99.90
23629;DHT22;11991;57.150;-2.134;2023-08-30T13:26:46;17.00;99.90
23629;DHT22;11991;57.150;-2.134;2023-08-30T13:29:13;17.00;99.90
23629;DHT22;11991;57.150;-2.134;2023-08-30T13:31:42;17.00;99.90
23629;DHT22;11991;57.150;-2.134;2023-08-30T13:34:09;17.00;99.90
23629;DHT22;11991;57.150;-2.134;2023-08-30T13:36:36;16.90;99.90
23629;DHT22;11991;57.150;-2.134;2023-08-30T13:39:03;16.90;99.90
23629;DHT22;11991;57.150;-2.134;2023-08-30T13:41:31;17.00;99.90
23629;DHT22;11991;57.150;-2.134;2023-08-30T13:43:58;17.10;99.90
23629;DHT22;11991;57.150;-2.134;2023-08-30T13:46:29;17.10;99.90
23629;DHT22;11991;57.150;-2.134;2023-08-30T13:48:56;17.10;99.90
23629;DHT22;11991;57.150;-2.134;2023-08-30T13:51:25;17.30;99.90
23629;DHT22;11991;57.150;-2.134;2023-08-30T13:53:52;17.20;99.90
23629;DHT22;11991;57.150;-2.134;2023-08-30T13:56:20;17.20;99.90
23629;DHT22;11991;57.150;-2.134;2023-08-30T13:58:47;17.30;99.90
23629;DHT22;11991;57.150;-2.134;2023-08-30T14:01:15;17.30;99.90
23629;DHT22;11991;57.150;-2.134;2023-08-30T14:03:42;17.30;99.90
23629;DHT22;11991;57.150;-2.134;2023-08-30T14:06:09;17.40;99.90
23629;DHT22;11991;57.150;-2.134;2023-08-30T14:08:37;17.50;99.90
23629;DHT22;11991;57.150;-2.134;2023-08-30T14:11:04;17.40;99.90
23629;DHT22;11991;57.150;-2.134;2023-08-30T14:13:31;17.30;99.90
23629;DHT22;11991;57.150;-2.134;2023-08-30T14:16:03;17.30;99.90
23629;DHT22;11991;57.150;-2.134;2023-08-30T14:18:33;17.30;99.90
23629;DHT22;11991;57.150;-2.134;2023-08-30T14:21:00;17.40;99.90
23629;DHT22;11991;57.150;-2.134;2023-08-30T14:23:29;17.50;99.90
23629;DHT22;11991;57.150;-2.134;2023-08-30T14:28:25;17.70;99.90
23629;DHT22;11991;57.150;-2.134;2023-08-30T14:30:53;17.60;99.90
23629;DHT22;11991;57.150;-2.134;2023-08-30T14:33:20;17.50;99.90
23629;DHT22;11991;57.150;-2.134;2023-08-30T14:35:48;17.40;99.90
23629;DHT22;11991;57.150;-2.134;2023-08-30T14:38:15;17.40;99.90
23629;DHT22;11991;57.150;-2.134;2023-08-30T14:40:42;17.40;99.90
23629;DHT22;11991;57.150;-2.134;2023-08-30T14:43:09;17.40;99.90
23629;DHT22;11991;57.150;-2.134;2023-08-30T14:45:36;17.50;99.90
23629;DHT22;11991;57.150;-2.134;2023-08-30T14:48:03;17.50;99.90
23629;DHT22;11991;57.150;-2.134;2023-08-30T14:50:31;17.60;99.90
23629;DHT22;11991;57.150;-2.134;2023-08-30T14:52:58;17.60;99.90
23629;DHT22;11991;57.150;-2.134;2023-08-30T14:55:25;17.60;99.90
23629;DHT22;11991;57.150;-2.134;2023-08-30T14:57:53;17.60;99.90
23629;DHT22;11991;57.150;-2.134;2023-08-30T15:00:20;17.50;99.90
23629;DHT22;11991;57.150;-2.134;2023-08-30T15:02:48;17.50;99.90
23629;DHT22;11991;57.150;-2.134;2023-08-30T15:05:16;17.50;99.90
23629;DHT22;11991;57.150;-2.134;2023-08-30T15:07:43;17.50;99.90
23629;DHT22;11991;57.150;-2.134;2023-08-30T15:10:10;17.40;99.90
23629;DHT22;11991;57.150;-2.134;2023-08-30T15:12:37;17.40;99.90
23629;DHT22;11991;57.150;-2.134;2023-08-30T15:15:05;17.20;99.90
23629;DHT22;11991;57.150;-2.134;2023-08-30T15:17:32;17.10;99.90
23629;DHT22;11991;57.150;-2.134;2023-08-30T15:19:59;16.90;99.90
23629;DHT22;11991;57.150;-2.134;2023-08-30T15:22:26;16.80;99.90
23629;DHT22;11991;57.150;-2.134;2023-08-30T15:24:54;16.80;99.90
23629;DHT22;11991;57.150;-2.134;2023-08-30T15:27:21;16.90;99.90
23629;DHT22;11991;57.150;-2.134;2023-08-30T15:29:48;17.00;99.90
23629;DHT22;11991;57.150;-2.134;2023-08-30T15:32:18;17.10;99.90
23629;DHT22;11991;57.150;-2.134;2023-08-30T15:34:45;17.10;99.90